sensor_id;sensor_type;location;lat;lon;timestamp;P1;durP1;ratioP1;P2;durP2;ratioP2
45812;SDS011;31519;45.408;10.962;2024-03-07T00:00:22;8.98;;;1.92;;
45812;SDS011;31519;45.408;10.962;2024-03-07T00:03:10;3.20;;;1.67;;
45812;SDS011;31519;45.408;10.962;2024-03-07T00:05:39;4.10;;;2.20;;
45812;SDS011;31519;45.408;10.962;2024-03-07T00:08:07;5.57;;;1.92;;
45812;SDS011;31519;45.408;10.962;2024-03-07T00:10:38;8.63;;;2.30;;
45812;SDS011;31519;45.408;10.962;2024-03-07T00:13:06;4.57;;;2.30;;
45812;SDS011;31519;45.408;10.962;2024-03-07T00:15:36;4.47;;;2.20;;
45812;SDS011;31519;45.408;10.962;2024-03-07T00:18:04;4.38;;;2.50;;
45812;SDS011;31519;45.408;10.962;2024-03-07T00:20:34;8.32;;;2.95;;
45812;SDS011;31519;45.408;10.962;2024-03-07T00:23:03;7.45;;;3.08;;
45812;SDS011;31519;45.408;10.962;2024-03-07T00:25:32;2.85;;;2.10;;
45812;SDS011;31519;45.408;10.962;2024-03-07T00:28:00;6.10;;;3.60;;
45812;SDS011;31519;45.408;10.962;2024-03-07T00:30:32;5.63;;;3.67;;
45812;SDS011;31519;45.408;10.962;2024-03-07T00:33:01;5.70;;;3.17;;
45812;SDS011;31519;45.408;10.962;2024-03-07T00:35:31;7.93;;;3.17;;
45812;SDS011;31519;45.408;10.962;2024-03-07T00:37:59;9.48;;;3.53;;
45812;SDS011;31519;45.408;10.962;2024-03-07T00:40:28;5.03;;;3.60;;
45812;SDS011;31519;45.408;10.962;2024-03-07T00:42:56;11.55;;;3.63;;
45812;SDS011;31519;45.408;10.962;2024-03-07T00:45:27;9.85;;;3.20;;
45812;SDS011;31519;45.408;10.962;2024-03-07T00:47:56;6.25;;;3.70;;
45812;SDS011;31519;45.408;10.962;2024-03-07T00:50:25;5.00;;;3.00;;
45812;SDS011;31519;45.408;10.962;2024-03-07T00:52:53;12.18;;;3.25;;
45812;SDS011;31519;45.408;10.962;2024-03-07T00:55:22;12.88;;;3.60;;
45812;SDS011;31519;45.408;10.962;2024-03-07T00:57:51;5.65;;;3.45;;
45812;SDS011;31519;45.408;10.962;2024-03-07T01:00:19;6.40;;;3.47;;
45812;SDS011;31519;45.408;10.962;2024-03-07T01:02:49;6.85;;;3.70;;
45812;SDS011;31519;45.408;10.962;2024-03-07T01:05:21;3.47;;;2.97;;
45812;SDS011;31519;45.408;10.962;2024-03-07T01:07:49;12.15;;;4.32;;
45812;SDS011;31519;45.408;10.962;2024-03-07T01:10:18;10.18;;;3.20;;
45812;SDS011;31519;45.408;10.962;2024-03-07T01:12:47;6.13;;;2.78;;
45812;SDS011;31519;45.408;10.962;2024-03-07T01:15:18;5.65;;;2.70;;
45812;SDS011;31519;45.408;10.962;2024-03-07T01:17:46;4.28;;;2.78;;
45812;SDS011;31519;45.408;10.962;2024-03-07T01:20:15;5.97;;;2.72;;
45812;SDS011;31519;45.408;10.962;2024-03-07T01:22:44;11.50;;;3.53;;
45812;SDS011;31519;45.408;10.962;2024-03-07T01:25:13;7.90;;;2.65;;
45812;SDS011;31519;45.408;10.962;2024-03-07T01:27:41;6.47;;;2.90;;
45812;SDS011;31519;45.408;10.962;2024-03-07T01:30:10;9.82;;;3.72;;
45812;SDS011;31519;45.408;10.962;2024-03-07T01:32:39;4.15;;;2.67;;
45812;SDS011;31519;45.408;10.962;2024-03-07T01:35:07;4.82;;;2.70;;
45812;SDS011;31519;45.408;10.962;2024-03-07T01:37:37;11.90;;;3.10;;
45812;SDS011;31519;45.408;10.962;2024-03-07T01:40:06;3.58;;;2.72;;
45812;SDS011;31519;45.408;10.962;2024-03-07T01:42:35;4.47;;;2.70;;
45812;SDS011;31519;45.408;10.962;2024-03-07T01:45:04;4.35;;;2.90;;
45812;SDS011;31519;45.408;10.962;2024-03-07T01:47:33;7.55;;;3.60;;
45812;SDS011;31519;45.408;10.962;2024-03-07T01:50:02;5.43;;;2.97;;
45812;SDS011;31519;45.408;10.962;2024-03-07T01:52:31;5.43;;;3.10;;
45812;SDS011;31519;45.408;10.962;2024-03-07T01:55:00;5.22;;;3.03;;
45812;SDS011;31519;45.408;10.962;2024-03-07T01:57:30;4.88;;;2.58;;
45812;SDS011;31519;45.408;10.962;2024-03-07T01:59:59;9.25;;;2.80;;
45812;SDS011;31519;45.408;10.962;2024-03-07T02:02:34;3.40;;;2.80;;
45812;SDS011;31519;45.408;10.962;2024-03-07T02:05:03;5.63;;;2.75;;
45812;SDS011;31519;45.408;10.962;2024-03-07T02:07:32;4.63;;;2.80;;
45812;SDS011;31519;45.408;10.962;2024-03-07T02:10:04;6.85;;;3.17;;
45812;SDS011;31519;45.408;10.962;2024-03-07T02:12:33;3.28;;;2.80;;
45812;SDS011;31519;45.408;10.962;2024-03-07T02:15:02;3.95;;;2.85;;
45812;SDS011;31519;45.408;10.962;2024-03-07T02:17:30;6.07;;;3.33;;
45812;SDS011;31519;45.408;10.962;2024-03-07T02:20:00;6.53;;;3.25;;
45812;SDS011;31519;45.408;10.962;2024-03-07T02:22:28;6.53;;;3.08;;
45812;SDS011;31519;45.408;10.962;2024-03-07T02:24:57;7.90;;;3.53;;
45812;SDS011;31519;45.408;10.962;2024-03-07T02:27:25;3.80;;;3.20;;
45812;SDS011;31519;45.408;10.962;2024-03-07T02:29:54;4.05;;;3.22;;
45812;SDS011;31519;45.408;10.962;2024-03-07T02:32:22;8.88;;;3.40;;
45812;SDS011;31519;45.408;10.962;2024-03-07T02:34:51;6.50;;;2.78;;
45812;SDS011;31519;45.408;10.962;2024-03-07T02:37:20;4.82;;;3.30;;
45812;SDS011;31519;45.408;10.962;2024-03-07T02:39:48;4.88;;;3.38;;
45812;SDS011;31519;45.408;10.962;2024-03-07T02:42:17;3.20;;;2.63;;
45812;SDS011;31519;45.408;10.962;2024-03-07T02:44:46;4.00;;;2.60;;
45812;SDS011;31519;45.408;10.962;2024-03-07T02:47:14;4.13;;;2.40;;
45812;SDS011;31519;45.408;10.962;2024-03-07T02:49:43;6.55;;;3.53;;
45812;SDS011;31519;45.408;10.962;2024-03-07T02:52:12;5.50;;;3.38;;
45812;SDS011;31519;45.408;10.962;2024-03-07T02:54:40;6.30;;;3.15;;
45812;SDS011;31519;45.408;10.962;2024-03-07T02:57:09;7.20;;;3.28;;
45812;SDS011;31519;45.408;10.962;2024-03-07T02:59:39;5.22;;;3.70;;
45812;SDS011;31519;45.408;10.962;2024-03-07T03:02:07;7.55;;;3.58;;
45812;SDS011;31519;45.408;10.962;2024-03-07T03:04:36;9.05;;;4.47;;
45812;SDS011;31519;45.408;10.962;2024-03-07T03:07:04;7.78;;;4.50;;
45812;SDS011;31519;45.408;10.962;2024-03-07T03:09:35;6.30;;;3.92;;
45812;SDS011;31519;45.408;10.962;2024-03-07T03:12:07;7.72;;;3.78;;
45812;SDS011;31519;45.408;10.962;2024-03-07T03:14:37;7.60;;;5.03;;
45812;SDS011;31519;45.408;10.962;2024-03-07T03:17:05;6.38;;;4.13;;
45812;SDS011;31519;45.408;10.962;2024-03-07T03:19:37;7.80;;;4.00;;
45812;SDS011;31519;45.408;10.962;2024-03-07T03:22:05;6.75;;;4.20;;
45812;SDS011;31519;45.408;10.962;2024-03-07T03:24:37;6.18;;;4.00;;
45812;SDS011;31519;45.408;10.962;2024-03-07T03:27:09;7.10;;;4.72;;
45812;SDS011;31519;45.408;10.962;2024-03-07T03:29:39;11.52;;;4.70;;
45812;SDS011;31519;45.408;10.962;2024-03-07T03:32:08;7.00;;;4.72;;
45812;SDS011;31519;45.408;10.962;2024-03-07T03:34:37;10.10;;;4.95;;
45812;SDS011;31519;45.408;10.962;2024-03-07T03:37:05;10.88;;;5.22;;
45812;SDS011;31519;45.408;10.962;2024-03-07T03:39:34;6.82;;;4.22;;
45812;SDS011;31519;45.408;10.962;2024-03-07T03:42:02;9.23;;;4.22;;
45812;SDS011;31519;45.408;10.962;2024-03-07T03:44:31;10.85;;;5.15;;
45812;SDS011;31519;45.408;10.962;2024-03-07T03:46:59;7.30;;;4.22;;
45812;SDS011;31519;45.408;10.962;2024-03-07T03:49:32;8.25;;;4.10;;
45812;SDS011;31519;45.408;10.962;2024-03-07T03:52:00;8.02;;;3.90;;
45812;SDS011;31519;45.408;10.962;2024-03-07T03:54:29;7.72;;;4.15;;
45812;SDS011;31519;45.408;10.962;2024-03-07T03:56:57;10.27;;;4.63;;
45812;SDS011;31519;45.408;10.962;2024-03-07T03:59:27;6.55;;;4.20;;
45812;SDS011;31519;45.408;10.962;2024-03-07T04:01:55;11.13;;;3.72;;
45812;SDS011;31519;45.408;10.962;2024-03-07T04:04:24;7.10;;;3.72;;
45812;SDS011;31519;45.408;10.962;2024-03-07T04:06:53;4.90;;;3.30;;
45812;SDS011;31519;45.408;10.962;2024-03-07T04:09:22;6.43;;;3.65;;
45812;SDS011;31519;45.408;10.962;2024-03-07T04:11:51;11.20;;;4.70;;
45812;SDS011;31519;45.408;10.962;2024-03-07T04:14:19;5.28;;;3.58;;
45812;SDS011;31519;45.408;10.962;2024-03-07T04:16:48;6.43;;;3.60;;
45812;SDS011;31519;45.408;10.962;2024-03-07T06:38:27;8.10;;;5.10;;
45812;SDS011;31519;45.408;10.962;2024-03-07T06:40:55;8.30;;;5.43;;
45812;SDS011;31519;45.408;10.962;2024-03-07T06:43:24;8.40;;;4.88;;
45812;SDS011;31519;45.408;10.962;2024-03-07T06:45:52;10.00;;;4.85;;
45812;SDS011;31519;45.408;10.962;2024-03-07T06:48:20;7.95;;;4.75;;
45812;SDS011;31519;45.408;10.962;2024-03-07T06:50:49;10.00;;;5.03;;
45812;SDS011;31519;45.408;10.962;2024-03-07T06:53:18;8.32;;;4.93;;
45812;SDS011;31519;45.408;10.962;2024-03-07T06:55:48;10.85;;;4.65;;
45812;SDS011;31519;45.408;10.962;2024-03-07T06:58:17;7.32;;;4.05;;
45812;SDS011;31519;45.408;10.962;2024-03-07T07:00:45;12.10;;;5.18;;
45812;SDS011;31519;45.408;10.962;2024-03-07T07:03:14;8.57;;;4.80;;
45812;SDS011;31519;45.408;10.962;2024-03-07T07:05:42;9.15;;;5.05;;
45812;SDS011;31519;45.408;10.962;2024-03-07T07:08:11;10.63;;;4.85;;
45812;SDS011;31519;45.408;10.962;2024-03-07T07:10:41;16.75;;;6.40;;
45812;SDS011;31519;45.408;10.962;2024-03-07T07:13:11;10.88;;;5.20;;
45812;SDS011;31519;45.408;10.962;2024-03-07T07:15:40;10.20;;;4.93;;
45812;SDS011;31519;45.408;10.962;2024-03-07T07:18:09;8.05;;;4.53;;
45812;SDS011;31519;45.408;10.962;2024-03-07T07:20:38;12.98;;;4.65;;
45812;SDS011;31519;45.408;10.962;2024-03-07T07:23:07;10.30;;;5.00;;
45812;SDS011;31519;45.408;10.962;2024-03-07T07:25:35;9.63;;;4.05;;
45812;SDS011;31519;45.408;10.962;2024-03-07T07:28:04;7.95;;;4.93;;
45812;SDS011;31519;45.408;10.962;2024-03-07T07:30:32;4.72;;;4.15;;
45812;SDS011;31519;45.408;10.962;2024-03-07T07:33:01;13.82;;;4.43;;
45812;SDS011;31519;45.408;10.962;2024-03-07T07:35:29;8.27;;;4.00;;
45812;SDS011;31519;45.408;10.962;2024-03-07T07:37:59;5.60;;;3.67;;
45812;SDS011;31519;45.408;10.962;2024-03-07T07:40:27;8.88;;;3.75;;
45812;SDS011;31519;45.408;10.962;2024-03-07T07:42:56;7.32;;;3.63;;
45812;SDS011;31519;45.408;10.962;2024-03-07T07:45:24;5.70;;;3.45;;
45812;SDS011;31519;45.408;10.962;2024-03-07T07:47:53;11.20;;;3.47;;
45812;SDS011;31519;45.408;10.962;2024-03-07T07:50:23;9.05;;;4.28;;
45812;SDS011;31519;45.408;10.962;2024-03-07T07:52:53;8.57;;;4.88;;
45812;SDS011;31519;45.408;10.962;2024-03-07T07:55:23;9.38;;;4.22;;
45812;SDS011;31519;45.408;10.962;2024-03-07T07:57:54;4.68;;;3.97;;
45812;SDS011;31519;45.408;10.962;2024-03-07T08:00:25;9.98;;;4.13;;
45812;SDS011;31519;45.408;10.962;2024-03-07T08:03:01;4.82;;;3.92;;
45812;SDS011;31519;45.408;10.962;2024-03-07T08:08:04;4.10;;;3.08;;
45812;SDS011;31519;45.408;10.962;2024-03-07T08:10:35;3.60;;;3.10;;
45812;SDS011;31519;45.408;10.962;2024-03-07T08:13:05;7.38;;;3.88;;
45812;SDS011;31519;45.408;10.962;2024-03-07T08:15:38;6.13;;;3.47;;
45812;SDS011;31519;45.408;10.962;2024-03-07T08:18:07;4.88;;;3.38;;
45812;SDS011;31519;45.408;10.962;2024-03-07T08:20:39;4.28;;;3.05;;
45812;SDS011;31519;45.408;10.962;2024-03-07T08:23:09;9.38;;;3.33;;
45812;SDS011;31519;45.408;10.962;2024-03-07T08:25:38;9.18;;;4.28;;
45812;SDS011;31519;45.408;10.962;2024-03-07T08:28:09;7.72;;;3.65;;
45812;SDS011;31519;45.408;10.962;2024-03-07T08:30:37;6.18;;;3.97;;
45812;SDS011;31519;45.408;10.962;2024-03-07T08:33:06;9.23;;;3.92;;
45812;SDS011;31519;45.408;10.962;2024-03-07T08:35:35;7.13;;;3.97;;
45812;SDS011;31519;45.408;10.962;2024-03-07T08:38:04;9.05;;;4.90;;
45812;SDS011;31519;45.408;10.962;2024-03-07T08:40:32;13.18;;;4.95;;
45812;SDS011;31519;45.408;10.962;2024-03-07T08:43:02;10.98;;;5.07;;
45812;SDS011;31519;45.408;10.962;2024-03-07T08:45:31;8.15;;;4.15;;
45812;SDS011;31519;45.408;10.962;2024-03-07T08:48:03;8.07;;;4.50;;
45812;SDS011;31519;45.408;10.962;2024-03-07T08:50:33;8.95;;;5.18;;
45812;SDS011;31519;45.408;10.962;2024-03-07T08:53:03;11.30;;;4.88;;
45812;SDS011;31519;45.408;10.962;2024-03-07T08:55:35;10.57;;;5.25;;
45812;SDS011;31519;45.408;10.962;2024-03-07T08:58:05;11.68;;;5.95;;
45812;SDS011;31519;45.408;10.962;2024-03-07T09:00:36;17.25;;;5.57;;
45812;SDS011;31519;45.408;10.962;2024-03-07T09:03:07;8.80;;;5.47;;
45812;SDS011;31519;45.408;10.962;2024-03-07T09:05:40;13.52;;;5.95;;
45812;SDS011;31519;45.408;10.962;2024-03-07T09:08:09;15.70;;;5.50;;
45812;SDS011;31519;45.408;10.962;2024-03-07T09:10:37;20.25;;;6.85;;
45812;SDS011;31519;45.408;10.962;2024-03-07T09:13:12;23.95;;;6.53;;
45812;SDS011;31519;45.408;10.962;2024-03-07T09:15:40;18.52;;;6.47;;
45812;SDS011;31519;45.408;10.962;2024-03-07T09:18:08;14.23;;;6.15;;
45812;SDS011;31519;45.408;10.962;2024-03-07T09:20:37;20.05;;;5.97;;
45812;SDS011;31519;45.408;10.962;2024-03-07T09:23:06;15.85;;;5.65;;
45812;SDS011;31519;45.408;10.962;2024-03-07T09:25:34;15.15;;;5.47;;
45812;SDS011;31519;45.408;10.962;2024-03-07T09:28:04;17.83;;;5.78;;
45812;SDS011;31519;45.408;10.962;2024-03-07T09:30:34;15.25;;;5.40;;
45812;SDS011;31519;45.408;10.962;2024-03-07T09:33:07;12.93;;;5.57;;
45812;SDS011;31519;45.408;10.962;2024-03-07T09:35:39;13.18;;;4.20;;
45812;SDS011;31519;45.408;10.962;2024-03-07T09:38:08;13.70;;;4.40;;
45812;SDS011;31519;45.408;10.962;2024-03-07T09:40:36;14.48;;;4.28;;
45812;SDS011;31519;45.408;10.962;2024-03-07T09:43:06;14.77;;;4.70;;
45812;SDS011;31519;45.408;10.962;2024-03-07T09:45:37;12.85;;;4.28;;
45812;SDS011;31519;45.408;10.962;2024-03-07T09:48:08;9.00;;;4.10;;
45812;SDS011;31519;45.408;10.962;2024-03-07T09:50:37;12.55;;;4.38;;
45812;SDS011;31519;45.408;10.962;2024-03-07T09:53:06;9.73;;;4.20;;
45812;SDS011;31519;45.408;10.962;2024-03-07T09:55:36;8.57;;;4.68;;
45812;SDS011;31519;45.408;10.962;2024-03-07T09:58:05;18.70;;;4.05;;
45812;SDS011;31519;45.408;10.962;2024-03-07T10:00:36;25.90;;;4.60;;
45812;SDS011;31519;45.408;10.962;2024-03-07T10:03:08;9.60;;;3.85;;
45812;SDS011;31519;45.408;10.962;2024-03-07T10:05:37;15.63;;;4.40;;
45812;SDS011;31519;45.408;10.962;2024-03-07T10:08:07;10.60;;;4.55;;
45812;SDS011;31519;45.408;10.962;2024-03-07T10:10:35;9.48;;;4.30;;
45812;SDS011;31519;45.408;10.962;2024-03-07T10:13:04;11.27;;;4.88;;
45812;SDS011;31519;45.408;10.962;2024-03-07T10:15:33;16.95;;;5.00;;
45812;SDS011;31519;45.408;10.962;2024-03-07T10:18:06;10.90;;;3.38;;
45812;SDS011;31519;45.408;10.962;2024-03-07T10:20:36;11.02;;;4.00;;
45812;SDS011;31519;45.408;10.962;2024-03-07T10:23:05;12.73;;;5.30;;
45812;SDS011;31519;45.408;10.962;2024-03-07T10:25:35;11.38;;;4.20;;
45812;SDS011;31519;45.408;10.962;2024-03-07T10:28:06;18.35;;;5.45;;
45812;SDS011;31519;45.408;10.962;2024-03-07T10:30:42;8.48;;;4.25;;
45812;SDS011;31519;45.408;10.962;2024-03-07T10:33:18;7.45;;;4.57;;
45812;SDS011;31519;45.408;10.962;2024-03-07T10:35:47;16.45;;;4.78;;
45812;SDS011;31519;45.408;10.962;2024-03-07T10:38:17;21.75;;;4.65;;
45812;SDS011;31519;45.408;10.962;2024-03-07T10:40:47;6.55;;;4.15;;
45812;SDS011;31519;45.408;10.962;2024-03-07T10:43:17;10.38;;;5.57;;
45812;SDS011;31519;45.408;10.962;2024-03-07T10:45:48;7.53;;;4.60;;
45812;SDS011;31519;45.408;10.962;2024-03-07T10:48:20;10.48;;;5.28;;
45812;SDS011;31519;45.408;10.962;2024-03-07T10:56:45;10.18;;;4.00;;
45812;SDS011;31519;45.408;10.962;2024-03-07T10:59:27;12.27;;;4.82;;
45812;SDS011;31519;45.408;10.962;2024-03-07T11:04:55;8.43;;;3.08;;
45812;SDS011;31519;45.408;10.962;2024-03-07T11:07:24;14.60;;;4.03;;
45812;SDS011;31519;45.408;10.962;2024-03-07T11:09:53;13.90;;;3.90;;
45812;SDS011;31519;45.408;10.962;2024-03-07T11:12:23;7.68;;;3.85;;
45812;SDS011;31519;45.408;10.962;2024-03-07T11:14:53;4.93;;;3.22;;
45812;SDS011;31519;45.408;10.962;2024-03-07T11:17:24;5.43;;;2.25;;
45812;SDS011;31519;45.408;10.962;2024-03-07T11:19:53;3.70;;;2.90;;
45812;SDS011;31519;45.408;10.962;2024-03-07T11:22:28;5.85;;;3.40;;
45812;SDS011;31519;45.408;10.962;2024-03-07T11:25:03;7.78;;;3.00;;
45812;SDS011;31519;45.408;10.962;2024-03-07T11:27:39;7.88;;;3.40;;
45812;SDS011;31519;45.408;10.962;2024-03-07T11:30:08;23.85;;;2.80;;
45812;SDS011;31519;45.408;10.962;2024-03-07T11:32:38;18.85;;;3.22;;
45812;SDS011;31519;45.408;10.962;2024-03-07T11:35:13;13.63;;;3.80;;
45812;SDS011;31519;45.408;10.962;2024-03-07T11:37:43;5.25;;;3.28;;
45812;SDS011;31519;45.408;10.962;2024-03-07T11:42:53;9.10;;;3.53;;
45812;SDS011;31519;45.408;10.962;2024-03-07T11:45:27;9.70;;;4.20;;
45812;SDS011;31519;45.408;10.962;2024-03-07T11:47:58;11.18;;;4.15;;
45812;SDS011;31519;45.408;10.962;2024-03-07T11:50:38;3.60;;;3.25;;
45812;SDS011;31519;45.408;10.962;2024-03-07T11:53:08;12.20;;;3.35;;
45812;SDS011;31519;45.408;10.962;2024-03-07T11:55:38;10.93;;;3.45;;
45812;SDS011;31519;45.408;10.962;2024-03-07T11:58:14;5.75;;;3.33;;
45812;SDS011;31519;45.408;10.962;2024-03-07T12:00:45;5.72;;;3.17;;
45812;SDS011;31519;45.408;10.962;2024-03-07T12:03:18;4.35;;;3.13;;
45812;SDS011;31519;45.408;10.962;2024-03-07T12:05:52;7.90;;;3.10;;
45812;SDS011;31519;45.408;10.962;2024-03-07T12:08:22;7.35;;;3.17;;
45812;SDS011;31519;45.408;10.962;2024-03-07T12:10:52;6.80;;;3.22;;
45812;SDS011;31519;45.408;10.962;2024-03-07T12:15:55;5.45;;;2.80;;
45812;SDS011;31519;45.408;10.962;2024-03-07T12:18:27;11.15;;;4.03;;
45812;SDS011;31519;45.408;10.962;2024-03-07T12:20:57;6.90;;;4.55;;
45812;SDS011;31519;45.408;10.962;2024-03-07T12:23:27;9.95;;;3.25;;
45812;SDS011;31519;45.408;10.962;2024-03-07T12:26:02;7.85;;;3.47;;
45812;SDS011;31519;45.408;10.962;2024-03-07T12:28:31;12.43;;;3.72;;
45812;SDS011;31519;45.408;10.962;2024-03-07T12:31:06;12.15;;;2.72;;
45812;SDS011;31519;45.408;10.962;2024-03-07T12:33:44;9.27;;;3.15;;
45812;SDS011;31519;45.408;10.962;2024-03-07T12:36:20;8.13;;;3.00;;
45812;SDS011;31519;45.408;10.962;2024-03-07T12:38:54;7.22;;;3.15;;
45812;SDS011;31519;45.408;10.962;2024-03-07T12:41:23;10.77;;;3.25;;
45812;SDS011;31519;45.408;10.962;2024-03-07T12:43:52;8.00;;;2.97;;
45812;SDS011;31519;45.408;10.962;2024-03-07T12:46:21;11.02;;;3.83;;
45812;SDS011;31519;45.408;10.962;2024-03-07T12:48:50;6.30;;;2.78;;
45812;SDS011;31519;45.408;10.962;2024-03-07T12:51:18;10.77;;;3.13;;
45812;SDS011;31519;45.408;10.962;2024-03-07T12:53:52;9.77;;;2.85;;
45812;SDS011;31519;45.408;10.962;2024-03-07T12:56:20;6.90;;;3.13;;
45812;SDS011;31519;45.408;10.962;2024-03-07T12:58:49;11.30;;;3.20;;
45812;SDS011;31519;45.408;10.962;2024-03-07T13:01:18;10.93;;;2.85;;
45812;SDS011;31519;45.408;10.962;2024-03-07T13:03:48;6.78;;;2.90;;
45812;SDS011;31519;45.408;10.962;2024-03-07T13:06:17;8.45;;;3.13;;
45812;SDS011;31519;45.408;10.962;2024-03-07T13:08:54;14.15;;;3.30;;
45812;SDS011;31519;45.408;10.962;2024-03-07T13:11:26;8.10;;;3.92;;
45812;SDS011;31519;45.408;10.962;2024-03-07T13:13:58;8.63;;;3.28;;
45812;SDS011;31519;45.408;10.962;2024-03-07T13:16:27;6.38;;;3.03;;
45812;SDS011;31519;45.408;10.962;2024-03-07T13:18:59;4.53;;;3.63;;
45812;SDS011;31519;45.408;10.962;2024-03-07T13:21:29;6.93;;;3.33;;
45812;SDS011;31519;45.408;10.962;2024-03-07T13:23:58;8.93;;;3.17;;
45812;SDS011;31519;45.408;10.962;2024-03-07T13:26:28;4.88;;;2.75;;
45812;SDS011;31519;45.408;10.962;2024-03-07T13:28:59;9.63;;;3.63;;
45812;SDS011;31519;45.408;10.962;2024-03-07T13:31:29;6.65;;;3.88;;
45812;SDS011;31519;45.408;10.962;2024-03-07T13:33:57;7.80;;;3.92;;
45812;SDS011;31519;45.408;10.962;2024-03-07T13:36:30;5.93;;;3.10;;
45812;SDS011;31519;45.408;10.962;2024-03-07T13:38:58;5.68;;;3.13;;
45812;SDS011;31519;45.408;10.962;2024-03-07T13:41:27;8.70;;;4.28;;
45812;SDS011;31519;45.408;10.962;2024-03-07T13:43:56;11.05;;;5.55;;
45812;SDS011;31519;45.408;10.962;2024-03-07T13:46:27;6.22;;;3.28;;
45812;SDS011;31519;45.408;10.962;2024-03-07T13:48:56;5.10;;;2.67;;
45812;SDS011;31519;45.408;10.962;2024-03-07T13:51:35;7.88;;;3.35;;
45812;SDS011;31519;45.408;10.962;2024-03-07T13:54:03;4.25;;;2.90;;
45812;SDS011;31519;45.408;10.962;2024-03-07T13:57:21;9.05;;;3.25;;
45812;SDS011;31519;45.408;10.962;2024-03-07T14:02:52;7.40;;;3.60;;
45812;SDS011;31519;45.408;10.962;2024-03-07T14:05:38;6.07;;;3.03;;
45812;SDS011;31519;45.408;10.962;2024-03-07T14:09:07;3.53;;;2.88;;
45812;SDS011;31519;45.408;10.962;2024-03-07T14:22:52;7.50;;;3.85;;
45812;SDS011;31519;45.408;10.962;2024-03-07T14:29:05;10.52;;;4.80;;
45812;SDS011;31519;45.408;10.962;2024-03-07T14:32:03;9.25;;;4.85;;
45812;SDS011;31519;45.408;10.962;2024-03-07T14:37:25;8.77;;;3.75;;
45812;SDS011;31519;45.408;10.962;2024-03-07T14:40:09;4.00;;;3.30;;
45812;SDS011;31519;45.408;10.962;2024-03-07T14:42:42;5.47;;;3.40;;
45812;SDS011;31519;45.408;10.962;2024-03-07T14:45:19;8.27;;;3.95;;
45812;SDS011;31519;45.408;10.962;2024-03-07T14:47:51;6.88;;;4.50;;
45812;SDS011;31519;45.408;10.962;2024-03-07T14:50:23;9.10;;;4.05;;
45812;SDS011;31519;45.408;10.962;2024-03-07T14:52:55;8.63;;;4.07;;
45812;SDS011;31519;45.408;10.962;2024-03-07T14:55:24;11.57;;;4.22;;
45812;SDS011;31519;45.408;10.962;2024-03-07T14:57:52;8.23;;;4.03;;
45812;SDS011;31519;45.408;10.962;2024-03-07T15:00:21;8.45;;;4.20;;
45812;SDS011;31519;45.408;10.962;2024-03-07T15:03:03;9.85;;;3.97;;
45812;SDS011;31519;45.408;10.962;2024-03-07T15:05:34;7.13;;;3.47;;
45812;SDS011;31519;45.408;10.962;2024-03-07T15:08:04;11.60;;;4.50;;
45812;SDS011;31519;45.408;10.962;2024-03-07T15:10:36;14.43;;;4.70;;
45812;SDS011;31519;45.408;10.962;2024-03-07T15:13:05;6.65;;;4.25;;
45812;SDS011;31519;45.408;10.962;2024-03-07T15:15:36;6.45;;;4.55;;
45812;SDS011;31519;45.408;10.962;2024-03-07T15:18:04;8.75;;;4.28;;
45812;SDS011;31519;45.408;10.962;2024-03-07T15:20:33;10.43;;;4.60;;
45812;SDS011;31519;45.408;10.962;2024-03-07T15:23:01;9.27;;;4.18;;
45812;SDS011;31519;45.408;10.962;2024-03-07T15:25:36;11.57;;;4.28;;
45812;SDS011;31519;45.408;10.962;2024-03-07T15:28:04;10.55;;;4.35;;
45812;SDS011;31519;45.408;10.962;2024-03-07T15:30:33;7.80;;;4.38;;
45812;SDS011;31519;45.408;10.962;2024-03-07T15:33:04;10.45;;;4.18;;
45812;SDS011;31519;45.408;10.962;2024-03-07T15:35:33;5.88;;;4.15;;
45812;SDS011;31519;45.408;10.962;2024-03-07T15:38:03;12.30;;;3.92;;
45812;SDS011;31519;45.408;10.962;2024-03-07T15:40:32;12.40;;;5.05;;
45812;SDS011;31519;45.408;10.962;2024-03-07T15:43:02;7.75;;;4.57;;
45812;SDS011;31519;45.408;10.962;2024-03-07T15:45:31;9.82;;;4.03;;
45812;SDS011;31519;45.408;10.962;2024-03-07T15:48:00;8.55;;;3.70;;
45812;SDS011;31519;45.408;10.962;2024-03-07T15:50:38;9.55;;;4.10;;
45812;SDS011;31519;45.408;10.962;2024-03-07T15:53:12;7.78;;;3.58;;
45812;SDS011;31519;45.408;10.962;2024-03-07T15:55:41;11.00;;;3.70;;
45812;SDS011;31519;45.408;10.962;2024-03-07T15:58:10;9.80;;;3.70;;
45812;SDS011;31519;45.408;10.962;2024-03-07T16:00:39;16.17;;;4.50;;
45812;SDS011;31519;45.408;10.962;2024-03-07T16:03:09;9.77;;;3.90;;
45812;SDS011;31519;45.408;10.962;2024-03-07T16:05:41;20.20;;;4.80;;
45812;SDS011;31519;45.408;10.962;2024-03-07T16:08:15;9.55;;;4.65;;
45812;SDS011;31519;45.408;10.962;2024-03-07T16:10:47;7.05;;;3.47;;
45812;SDS011;31519;45.408;10.962;2024-03-07T16:13:16;12.38;;;3.50;;
45812;SDS011;31519;45.408;10.962;2024-03-07T16:15:45;9.23;;;3.75;;
45812;SDS011;31519;45.408;10.962;2024-03-07T16:18:15;10.35;;;3.97;;
45812;SDS011;31519;45.408;10.962;2024-03-07T16:20:44;9.70;;;4.07;;
45812;SDS011;31519;45.408;10.962;2024-03-07T16:23:15;11.35;;;5.05;;
45812;SDS011;31519;45.408;10.962;2024-03-07T16:25:45;6.95;;;4.28;;
45812;SDS011;31519;45.408;10.962;2024-03-07T16:28:13;9.38;;;4.30;;
45812;SDS011;31519;45.408;10.962;2024-03-07T16:30:44;12.15;;;4.50;;
45812;SDS011;31519;45.408;10.962;2024-03-07T16:33:13;10.57;;;4.30;;
45812;SDS011;31519;45.408;10.962;2024-03-07T16:35:46;7.10;;;3.72;;
45812;SDS011;31519;45.408;10.962;2024-03-07T16:38:15;7.50;;;3.83;;
45812;SDS011;31519;45.408;10.962;2024-03-07T16:40:44;7.03;;;4.13;;
45812;SDS011;31519;45.408;10.962;2024-03-07T16:43:12;7.25;;;3.85;;
45812;SDS011;31519;45.408;10.962;2024-03-07T16:45:41;12.43;;;5.40;;
45812;SDS011;31519;45.408;10.962;2024-03-07T16:48:10;14.70;;;6.35;;
45812;SDS011;31519;45.408;10.962;2024-03-07T16:50:40;17.38;;;7.15;;
45812;SDS011;31519;45.408;10.962;2024-03-07T16:53:10;25.30;;;7.28;;
45812;SDS011;31519;45.408;10.962;2024-03-07T16:55:39;12.02;;;7.63;;
45812;SDS011;31519;45.408;10.962;2024-03-07T16:58:07;16.10;;;6.88;;
45812;SDS011;31519;45.408;10.962;2024-03-07T17:00:44;15.80;;;7.90;;
45812;SDS011;31519;45.408;10.962;2024-03-07T17:03:14;12.63;;;7.45;;
45812;SDS011;31519;45.408;10.962;2024-03-07T17:05:43;21.27;;;7.60;;
45812;SDS011;31519;45.408;10.962;2024-03-07T17:08:13;15.20;;;8.15;;
45812;SDS011;31519;45.408;10.962;2024-03-07T17:10:45;13.15;;;7.32;;
45812;SDS011;31519;45.408;10.962;2024-03-07T17:13:14;17.20;;;7.85;;
45812;SDS011;31519;45.408;10.962;2024-03-07T17:15:44;13.82;;;8.32;;
45812;SDS011;31519;45.408;10.962;2024-03-07T17:18:14;20.13;;;8.10;;
45812;SDS011;31519;45.408;10.962;2024-03-07T17:20:44;15.63;;;7.32;;
45812;SDS011;31519;45.408;10.962;2024-03-07T17:23:14;17.73;;;7.75;;
45812;SDS011;31519;45.408;10.962;2024-03-07T17:25:44;22.55;;;8.80;;
45812;SDS011;31519;45.408;10.962;2024-03-07T17:28:14;16.45;;;8.07;;
45812;SDS011;31519;45.408;10.962;2024-03-07T17:30:44;15.63;;;7.13;;
45812;SDS011;31519;45.408;10.962;2024-03-07T17:33:13;22.83;;;8.68;;
45812;SDS011;31519;45.408;10.962;2024-03-07T17:35:43;15.15;;;8.82;;
45812;SDS011;31519;45.408;10.962;2024-03-07T17:38:12;14.18;;;8.70;;
45812;SDS011;31519;45.408;10.962;2024-03-07T17:40:42;15.82;;;8.20;;
45812;SDS011;31519;45.408;10.962;2024-03-07T17:43:11;14.27;;;8.35;;
45812;SDS011;31519;45.408;10.962;2024-03-07T17:45:40;24.58;;;8.20;;